Terminal Aerodrome Forecast
Issued by NWS

Home | Current Version | Previous Version | Text Only | Print | Product List | Glossary On
Versions: 1 2 3 4 5 6 7 8 9 10 11 12 13 14 15 16 17 18 19 20
078
FTUS44 KTSA 031305 AAA
TAFXNA
TAF AMD
KXNA 031305Z 0313/0412 00000KT P6SM SKC
     FM031600 34005KT P6SM SCT050
     FM040000 VRB02KT P6SM SCT250=

USA.gov is the U.S. government's official web portal to all federal, state and local government web resources and services.